aviador You're here:

KHJO Decoded Metar

HANFORD in CA, USA
Report Time2018-01-17 05:53:00
UTC Time2018-01-17 06:39:53
Flight Rules lifr LIFR
Wind130° at 04 kt
W.Decomp.*RWY 14: 3.7 kt HW 1.6 kt LCW
W.Rank130° ranks 11
Current wind is below 130° avg. (4.4)
Visibility1609 m
Phenomena:Mist
Clouds:Overcast 002 Hf
Ceiling200 ft
Temp11°C (ISA -4)
Dew Point11°C (100% RH)
AAT9.9°C
QNH1025 hPa
Density Alt-407 ft
Elevation243 ft
Report Wrong Elevation
Raw Report
METAR KHJO 170553Z AUTO 13004KT 1SM BR OVC002 11/11 A3026 RMK AO2 SLP248
T01060106 10111 20089 53010=

Extra information for KHJO:More info

Metar Taf Metar & Taf Last 4 Metars F.Rules Stats Wind Profile Meteogram Temp Stats Airport Information Weather charts Add Link Nearby VenuesMetar ALERT Operation Metar Decoded Social comments

AIRNAV info for KHJO